Time;durP1;ratioP1;P1;durP2;ratioP2;P2;SDS_P1;SDS_P2;PMS_P1;PMS_P2;Temp;Humidity;BMP_temperature;BMP_pressure;BME280_temperature;BME280_humidity;BME280_pressure;Samples;Min_cycle;Max_cycle;Signal;HPM_P1;HPM_P2
2022/02/18 00:01:55;;;;;;;10.45;3.05;;;;;;;;;;5118748;28;20075;-75
2022/02/18 00:04:21;;;;;;;12.75;2.50;;;;;;;;;;5117516;28;20043;-75
2022/02/18 00:06:48;;;;;;;10.15;3.28;;;;;;;;;;5117435;28;20092;-75
2022/02/18 00:09:14;;;;;;;8.73;1.90;;;;;;;;;;5118690;28;20086;-75
2022/02/18 00:11:41;;;;;;;13.25;3.38;;;;;;;;;;5116881;28;20086;-75
2022/02/18 00:14:07;;;;;;;9.75;2.67;;;;;;;;;;5118564;28;20074;-75
2022/02/18 00:16:34;;;;;;;12.07;2.13;;;;;;;;;;5118216;28;20075;-75
2022/02/18 00:19:02;;;;;;;12.45;2.42;;;;;;;;;;5117374;28;20548;-75
2022/02/18 00:21:28;;;;;;;9.55;2.33;;;;;;;;;;5118383;28;20074;-75
2022/02/18 00:23:55;;;;;;;14.93;2.13;;;;;;;;;;5118102;28;20128;-74
2022/02/18 00:26:21;;;;;;;9.38;2.28;;;;;;;;;;5117129;28;20401;-75
2022/02/18 00:28:49;;;;;;;13.15;2.53;;;;;;;;;;5118324;28;20088;-75
2022/02/18 00:31:16;;;;;;;10.40;2.30;;;;;;;;;;5117123;28;20502;-75
2022/02/18 00:33:43;;;;;;;9.43;2.30;;;;;;;;;;5118180;28;20120;-75
2022/02/18 00:36:11;;;;;;;11.13;2.08;;;;;;;;;;5117332;28;20428;-75
2022/02/18 00:38:38;;;;;;;17.67;3.42;;;;;;;;;;5117333;28;20083;-75
2022/02/18 00:41:06;;;;;;;6.07;1.83;;;;;;;;;;5118137;28;20419;-75
2022/02/18 00:43:32;;;;;;;8.60;3.47;;;;;;;;;;5117742;28;20075;-75
2022/02/18 00:45:59;;;;;;;8.45;1.92;;;;;;;;;;5117784;28;20039;-75
2022/02/18 00:48:26;;;;;;;12.30;2.20;;;;;;;;;;5117650;28;20043;-74
2022/02/18 00:50:52;;;;;;;8.98;2.55;;;;;;;;;;5117066;28;20079;-75
2022/02/18 00:53:20;;;;;;;14.60;2.40;;;;;;;;;;5117516;28;20074;-75
2022/02/18 00:55:47;;;;;;;12.73;3.25;;;;;;;;;;5116685;28;20090;-75
2022/02/18 00:58:13;;;;;;;9.20;2.13;;;;;;;;;;5116950;28;20047;-75
2022/02/18 01:00:40;;;;;;;14.73;2.45;;;;;;;;;;5117710;28;20417;-75
2022/02/18 01:03:06;;;;;;;10.20;2.67;;;;;;;;;;5116761;28;20069;-75
2022/02/18 01:05:33;;;;;;;8.88;2.53;;;;;;;;;;5117619;28;20071;-75
2022/02/18 01:07:59;;;;;;;11.38;2.13;;;;;;;;;;5117499;28;20075;-75
2022/02/18 01:10:28;;;;;;;9.98;1.95;;;;;;;;;;5115842;28;20085;-75
2022/02/18 01:12:55;;;;;;;8.98;2.13;;;;;;;;;;5117390;28;20123;-75
2022/02/18 01:15:21;;;;;;;10.18;2.75;;;;;;;;;;5116564;28;20066;-74
2022/02/18 01:17:48;;;;;;;6.18;1.88;;;;;;;;;;5116491;28;20383;-75
2022/02/18 01:20:14;;;;;;;10.27;1.63;;;;;;;;;;5117369;28;20457;-75
2022/02/18 01:22:41;;;;;;;14.02;2.05;;;;;;;;;;5116978;28;20127;-75
2022/02/18 01:25:10;;;;;;;6.30;1.67;;;;;;;;;;5116940;28;20122;-75
2022/02/18 01:27:39;;;;;;;10.13;2.40;;;;;;;;;;5117074;28;20044;-75
2022/02/18 01:30:07;;;;;;;7.57;1.67;;;;;;;;;;5115985;28;20047;-75
2022/02/18 01:32:33;;;;;;;10.70;1.90;;;;;;;;;;5116771;28;20124;-75
2022/02/18 01:35:00;;;;;;;12.95;2.70;;;;;;;;;;5116982;28;20088;-75
2022/02/18 01:37:27;;;;;;;13.43;2.00;;;;;;;;;;5115842;28;20134;-75
2022/02/18 01:39:53;;;;;;;9.32;1.80;;;;;;;;;;5115810;28;20057;-75
2022/02/18 01:42:20;;;;;;;12.73;2.65;;;;;;;;;;5116835;28;20119;-75
2022/02/18 01:44:50;;;;;;;11.63;3.47;;;;;;;;;;5116772;28;20093;-75
2022/02/18 01:47:19;;;;;;;7.50;2.30;;;;;;;;;;5116247;28;20138;-75
2022/02/18 01:49:46;;;;;;;10.38;2.38;;;;;;;;;;5115611;28;20069;-75
2022/02/18 01:52:13;;;;;;;8.45;3.03;;;;;;;;;;5116616;28;20050;-74
2022/02/18 01:54:40;;;;;;;8.63;2.67;;;;;;;;;;5115735;28;20130;-75
2022/02/18 01:57:07;;;;;;;10.70;2.42;;;;;;;;;;5116557;28;20172;-75
2022/02/18 01:59:34;;;;;;;10.45;2.33;;;;;;;;;;5115539;28;20380;-76
2022/02/18 02:02:02;;;;;;;5.88;1.88;;;;;;;;;;5115295;28;20078;-75
2022/02/18 02:04:29;;;;;;;8.60;2.05;;;;;;;;;;5116409;28;20118;-74
2022/02/18 02:06:59;;;;;;;8.02;1.88;;;;;;;;;;5115530;28;20067;-75
2022/02/18 02:09:26;;;;;;;9.75;1.85;;;;;;;;;;5115682;28;20127;-75
2022/02/18 02:11:52;;;;;;;15.98;4.25;;;;;;;;;;5114622;28;20135;-75
2022/02/18 02:14:19;;;;;;;10.35;2.70;;;;;;;;;;5116265;28;20126;-75
2022/02/18 02:16:45;;;;;;;11.55;1.73;;;;;;;;;;5115954;28;20067;-75
2022/02/18 02:19:13;;;;;;;15.13;2.60;;;;;;;;;;5116075;28;20131;-75
2022/02/18 02:21:46;;;;;;;10.07;1.90;;;;;;;;;;5114952;28;20604;-75
2022/02/18 02:24:14;;;;;;;10.35;2.85;;;;;;;;;;5116065;28;20082;-75
2022/02/18 02:26:41;;;;;;;8.88;1.98;;;;;;;;;;5114880;28;20075;-75
2022/02/18 02:29:07;;;;;;;9.68;2.38;;;;;;;;;;5115929;28;20127;-75
2022/02/18 02:31:34;;;;;;;12.82;3.25;;;;;;;;;;5114822;28;20554;-75
2022/02/18 02:34:00;;;;;;;11.32;2.35;;;;;;;;;;5115497;28;20071;-75
2022/02/18 02:36:27;;;;;;;8.98;1.92;;;;;;;;;;5115476;28;20145;-75
2022/02/18 02:38:53;;;;;;;13.40;2.33;;;;;;;;;;5114658;28;20533;-75
2022/02/18 02:41:22;;;;;;;10.70;2.13;;;;;;;;;;5115692;28;20138;-75
2022/02/18 02:43:49;;;;;;;10.07;2.13;;;;;;;;;;5115368;28;20043;-75
2022/02/18 02:46:16;;;;;;;8.43;1.88;;;;;;;;;;5115437;28;20127;-75
2022/02/18 02:48:43;;;;;;;5.93;2.08;;;;;;;;;;5115534;28;20130;-75
2022/02/18 02:51:10;;;;;;;11.98;4.22;;;;;;;;;;5115188;28;20074;-75
2022/02/18 02:53:37;;;;;;;14.25;2.53;;;;;;;;;;5115197;28;20087;-75
2022/02/18 02:56:04;;;;;;;10.38;2.75;;;;;;;;;;5115220;28;20118;-75
2022/02/18 02:58:32;;;;;;;12.18;2.00;;;;;;;;;;5115168;28;20075;-75
2022/02/18 03:00:59;;;;;;;16.73;2.53;;;;;;;;;;5115119;28;20078;-75
2022/02/18 03:03:25;;;;;;;11.13;2.05;;;;;;;;;;5115354;28;20126;-75
2022/02/18 03:05:58;;;;;;;12.65;3.58;;;;;;;;;;5114335;28;20447;-75
2022/02/18 03:08:24;;;;;;;14.43;2.58;;;;;;;;;;5114400;28;20118;-75
2022/02/18 03:13:33;;;;;;;9.05;2.50;;;;;;;;;;5113816;28;20446;-75
2022/02/18 03:16:00;;;;;;;11.98;3.33;;;;;;;;;;5115117;28;20078;-75
2022/02/18 03:18:26;;;;;;;9.40;2.17;;;;;;;;;;5114205;28;20079;-75
2022/02/18 03:20:53;;;;;;;14.85;2.53;;;;;;;;;;5114184;28;20075;-75
2022/02/18 03:23:19;;;;;;;10.65;2.60;;;;;;;;;;5114703;28;20039;-75
2022/02/18 03:25:46;;;;;;;7.65;2.33;;;;;;;;;;5114981;28;20145;-75
2022/02/18 03:28:12;;;;;;;11.10;2.33;;;;;;;;;;5114579;28;20094;-75
2022/02/18 03:30:41;;;;;;;12.77;2.47;;;;;;;;;;5113830;28;20082;-75
2022/02/18 03:33:08;;;;;;;8.52;2.80;;;;;;;;;;5114087;28;20084;-75
2022/02/18 03:35:35;;;;;;;10.05;2.05;;;;;;;;;;5114574;28;20090;-75
2022/02/18 03:38:02;;;;;;;12.93;3.08;;;;;;;;;;5114893;28;20048;-75
2022/02/18 03:40:28;;;;;;;10.52;1.98;;;;;;;;;;5114290;28;20143;-75
2022/02/18 03:42:55;;;;;;;10.95;3.15;;;;;;;;;;5114815;28;20131;-74
2022/02/18 03:45:21;;;;;;;13.35;2.55;;;;;;;;;;5114808;28;20044;-75
2022/02/18 03:47:49;;;;;;;8.75;1.92;;;;;;;;;;5114349;28;20079;-75
2022/02/18 03:50:16;;;;;;;32.10;5.75;;;;;;;;;;5114731;28;20127;-75
2022/02/18 03:52:42;;;;;;;11.52;2.55;;;;;;;;;;5114463;28;20122;-74
2022/02/18 03:55:09;;;;;;;12.18;2.10;;;;;;;;;;5113579;28;20131;-75
2022/02/18 03:57:36;;;;;;;9.90;2.28;;;;;;;;;;5114688;28;20078;-75
2022/02/18 04:00:04;;;;;;;11.15;2.58;;;;;;;;;;5114626;28;20118;-74
2022/02/18 04:02:30;;;;;;;7.65;1.75;;;;;;;;;;5114357;28;20044;-74
2022/02/18 04:04:58;;;;;;;10.27;3.38;;;;;;;;;;5113777;28;20071;-75
2022/02/18 04:07:25;;;;;;;9.63;2.38;;;;;;;;;;5114285;28;20119;-75
2022/02/18 04:09:51;;;;;;;12.30;2.47;;;;;;;;;;5114202;28;20126;-75
2022/02/18 04:12:18;;;;;;;10.60;2.17;;;;;;;;;;5112460;28;20078;-75
2022/02/18 04:14:44;;;;;;;6.72;1.92;;;;;;;;;;5114272;28;20078;-74
2022/02/18 04:17:11;;;;;;;11.15;1.85;;;;;;;;;;5113431;28;20487;-74
2022/02/18 04:19:37;;;;;;;14.38;2.53;;;;;;;;;;5114441;28;20130;-75
2022/02/18 04:22:05;;;;;;;14.95;4.80;;;;;;;;;;5114517;28;20074;-74
2022/02/18 04:24:32;;;;;;;9.55;2.88;;;;;;;;;;5114480;28;20118;-75
2022/02/18 04:26:59;;;;;;;9.23;1.90;;;;;;;;;;5114352;28;20135;-75
2022/02/18 04:29:25;;;;;;;9.05;2.03;;;;;;;;;;5115159;28;20502;-75
2022/02/18 04:31:53;;;;;;;13.98;2.10;;;;;;;;;;5118247;28;20118;-75
2022/02/18 04:34:19;;;;;;;18.13;2.30;;;;;;;;;;5117102;28;20412;-75
2022/02/18 04:36:46;;;;;;;11.38;2.92;;;;;;;;;;5118214;28;20438;-75
2022/02/18 04:39:14;;;;;;;12.32;2.38;;;;;;;;;;5117807;28;20093;-75
2022/02/18 04:41:42;;;;;;;9.15;2.15;;;;;;;;;;5118051;28;20118;-75
2022/02/18 04:44:09;;;;;;;11.98;1.98;;;;;;;;;;5117980;28;20070;-75
2022/02/18 04:46:36;;;;;;;8.52;2.65;;;;;;;;;;5117579;28;20093;-75
2022/02/18 04:49:02;;;;;;;8.07;2.20;;;;;;;;;;5116657;28;20554;-75
2022/02/18 04:51:29;;;;;;;7.28;1.67;;;;;;;;;;5117832;28;20126;-75
2022/02/18 04:53:56;;;;;;;11.43;2.00;;;;;;;;;;5117806;28;20079;-75
2022/02/18 04:56:24;;;;;;;9.55;2.47;;;;;;;;;;5117725;28;20100;-75
2022/02/18 04:58:50;;;;;;;8.95;2.30;;;;;;;;;;5116952;28;20130;-75
2022/02/18 05:01:17;;;;;;;6.25;2.72;;;;;;;;;;5116450;28;20510;-75
2022/02/18 05:03:43;;;;;;;10.55;1.83;;;;;;;;;;5116748;28;20078;-75
2022/02/18 05:06:10;;;;;;;11.57;2.33;;;;;;;;;;5116500;28;20522;-74
2022/02/18 05:08:37;;;;;;;7.97;2.80;;;;;;;;;;5117473;28;20122;-75
2022/02/18 05:11:03;;;;;;;11.68;2.72;;;;;;;;;;5115884;28;20086;-75
2022/02/18 05:13:31;;;;;;;9.65;1.80;;;;;;;;;;5117403;28;20097;-74
2022/02/18 05:15:57;;;;;;;6.55;1.88;;;;;;;;;;5116260;28;20127;-74
2022/02/18 05:18:24;;;;;;;12.38;3.22;;;;;;;;;;5116471;28;20082;-75
2022/02/18 05:20:51;;;;;;;11.20;4.40;;;;;;;;;;5116993;28;20078;-75
2022/02/18 05:23:17;;;;;;;12.50;4.53;;;;;;;;;;5117024;28;20044;-75
2022/02/18 05:25:44;;;;;;;16.33;3.03;;;;;;;;;;5117194;28;20090;-75
2022/02/18 05:28:10;;;;;;;9.38;3.05;;;;;;;;;;5116168;28;20127;-75
2022/02/18 05:30:38;;;;;;;9.80;3.38;;;;;;;;;;5116820;28;20067;-74
2022/02/18 05:33:05;;;;;;;7.55;1.83;;;;;;;;;;5117121;28;20122;-75
2022/02/18 05:35:31;;;;;;;9.90;3.00;;;;;;;;;;5117091;28;20142;-75
2022/02/18 05:37:58;;;;;;;12.23;3.78;;;;;;;;;;5115960;28;20592;-75
2022/02/18 05:40:24;;;;;;;9.35;2.70;;;;;;;;;;5115811;28;20079;-75
2022/02/18 05:42:51;;;;;;;11.25;2.85;;;;;;;;;;5116691;28;20071;-74
2022/02/18 05:45:17;;;;;;;10.43;2.15;;;;;;;;;;5116068;28;20126;-75
2022/02/18 05:47:45;;;;;;;14.27;3.83;;;;;;;;;;5115969;28;20075;-75
2022/02/18 05:50:13;;;;;;;10.65;2.47;;;;;;;;;;5116479;28;20036;-75
2022/02/18 05:52:40;;;;;;;22.58;4.65;;;;;;;;;;5115619;28;20491;-75
2022/02/18 05:55:07;;;;;;;18.25;5.35;;;;;;;;;;5116668;28;20134;-75
2022/02/18 05:57:34;;;;;;;22.65;7.75;;;;;;;;;;5115638;28;20484;-75
2022/02/18 06:00:01;;;;;;;17.88;5.13;;;;;;;;;;5116661;28;20122;-75
2022/02/18 06:02:27;;;;;;;10.13;3.00;;;;;;;;;;5116543;28;20075;-75
2022/02/18 06:04:55;;;;;;;9.45;2.72;;;;;;;;;;5116431;28;20078;-75
2022/02/18 06:07:21;;;;;;;15.02;3.72;;;;;;;;;;5115386;28;20039;-75
2022/02/18 06:09:48;;;;;;;11.60;2.25;;;;;;;;;;5116368;28;20122;-75
2022/02/18 06:12:14;;;;;;;9.13;2.90;;;;;;;;;;5113966;28;20071;-75
2022/02/18 06:14:41;;;;;;;10.32;2.47;;;;;;;;;;5115523;28;20126;-75
2022/02/18 06:17:09;;;;;;;8.30;2.30;;;;;;;;;;5116346;28;20122;-75
2022/02/18 06:19:36;;;;;;;9.70;1.88;;;;;;;;;;5115183;28;20084;-75
2022/02/18 06:22:04;;;;;;;6.43;2.00;;;;;;;;;;5116205;28;20123;-75
2022/02/18 06:24:31;;;;;;;16.20;2.88;;;;;;;;;;5115887;28;20075;-75
2022/02/18 06:26:57;;;;;;;5.30;1.88;;;;;;;;;;5115283;28;20089;-75
2022/02/18 06:29:24;;;;;;;10.23;2.25;;;;;;;;;;5115913;28;20082;-75
2022/02/18 06:31:50;;;;;;;11.98;2.30;;;;;;;;;;5115926;28;20071;-75
2022/02/18 06:34:17;;;;;;;11.98;2.85;;;;;;;;;;5115485;28;20127;-75
2022/02/18 06:36:44;;;;;;;13.80;3.53;;;;;;;;;;5115300;28;20071;-75
2022/02/18 06:39:11;;;;;;;7.40;1.77;;;;;;;;;;5114460;28;20130;-75
2022/02/18 06:41:38;;;;;;;11.48;2.05;;;;;;;;;;5115694;28;20432;-75
2022/02/18 06:44:05;;;;;;;12.65;2.47;;;;;;;;;;5115518;28;20078;-75
2022/02/18 06:46:32;;;;;;;9.65;2.60;;;;;;;;;;5114668;28;20118;-75
2022/02/18 06:48:58;;;;;;;16.70;3.55;;;;;;;;;;5115467;28;20079;-75
2022/02/18 06:51:25;;;;;;;14.88;2.95;;;;;;;;;;5115087;28;20100;-75
2022/02/18 06:53:52;;;;;;;9.48;3.00;;;;;;;;;;5115377;28;20070;-75
2022/02/18 06:56:19;;;;;;;11.73;1.65;;;;;;;;;;5115166;28;20096;-75
2022/02/18 06:58:46;;;;;;;10.00;1.83;;;;;;;;;;5114610;28;20126;-75
2022/02/18 07:01:12;;;;;;;8.55;2.30;;;;;;;;;;5115055;28;20127;-75
2022/02/18 07:03:39;;;;;;;13.18;2.10;;;;;;;;;;5115445;28;20442;-75
2022/02/18 07:06:06;;;;;;;16.80;2.63;;;;;;;;;;5115302;28;20127;-75
2022/02/18 07:08:33;;;;;;;7.38;1.85;;;;;;;;;;5114397;28;20081;-75
2022/02/18 07:11:00;;;;;;;10.38;1.58;;;;;;;;;;5113401;28;20071;-75
2022/02/18 07:13:28;;;;;;;9.32;1.80;;;;;;;;;;5115017;28;20087;-75
2022/02/18 07:15:57;;;;;;;7.32;1.85;;;;;;;;;;5115267;28;20118;-75
2022/02/18 07:18:24;;;;;;;11.20;2.08;;;;;;;;;;5114913;28;20121;-75
2022/02/18 07:20:51;;;;;;;17.10;1.85;;;;;;;;;;5115077;28;20075;-76
2022/02/18 07:23:18;;;;;;;9.10;1.95;;;;;;;;;;5114302;28;20089;-76
2022/02/18 07:25:46;;;;;;;16.23;2.38;;;;;;;;;;5113868;28;20040;-76
2022/02/18 07:28:12;;;;;;;8.20;1.60;;;;;;;;;;5115014;28;20046;-76
2022/02/18 07:30:41;;;;;;;8.35;1.98;;;;;;;;;;5114947;28;20155;-76
2022/02/18 07:33:08;;;;;;;5.75;1.55;;;;;;;;;;5115394;28;20059;-76
2022/02/18 07:35:34;;;;;;;7.35;1.95;;;;;;;;;;5113818;28;20475;-76
2022/02/18 07:38:01;;;;;;;6.95;2.30;;;;;;;;;;5114075;28;20079;-76
2022/02/18 07:40:28;;;;;;;8.75;1.85;;;;;;;;;;5113725;28;20491;-76
2022/02/18 07:42:55;;;;;;;9.18;1.92;;;;;;;;;;5114956;28;20043;-75
2022/02/18 07:45:22;;;;;;;5.18;1.60;;;;;;;;;;5114998;28;20078;-76
2022/02/18 07:47:54;;;;;;;7.68;1.58;;;;;;;;;;5114245;28;20043;-76
2022/02/18 07:50:21;;;;;;;12.38;1.98;;;;;;;;;;5114605;28;20130;-76
2022/02/18 07:52:47;;;;;;;7.00;1.25;;;;;;;;;;5114938;28;20067;-75
2022/02/18 07:55:14;;;;;;;6.57;1.33;;;;;;;;;;5114104;28;20122;-75
2022/02/18 07:57:40;;;;;;;6.18;1.50;;;;;;;;;;5115042;28;20071;-76
2022/02/18 08:00:09;;;;;;;5.72;1.65;;;;;;;;;;5114461;28;20071;-76
2022/02/18 08:02:35;;;;;;;13.55;3.05;;;;;;;;;;5115215;28;20078;-76
2022/02/18 08:05:03;;;;;;;7.22;1.95;;;;;;;;;;5117035;28;20122;-76
2022/02/18 08:07:30;;;;;;;7.50;2.40;;;;;;;;;;5118122;28;20574;-76
2022/02/18 08:09:57;;;;;;;8.80;2.13;;;;;;;;;;5118962;28;20126;-76
2022/02/18 08:12:23;;;;;;;7.90;1.30;;;;;;;;;;5117155;28;20082;-76
2022/02/18 08:14:50;;;;;;;6.80;1.40;;;;;;;;;;5119054;28;20071;-76
2022/02/18 08:17:16;;;;;;;6.57;1.20;;;;;;;;;;5118863;28;20119;-75
2022/02/18 08:19:43;;;;;;;3.55;1.55;;;;;;;;;;5117719;28;20075;-76
2022/02/18 08:22:12;;;;;;;4.97;1.15;;;;;;;;;;5118670;28;20071;-76
2022/02/18 08:24:40;;;;;;;7.03;1.88;;;;;;;;;;5117769;28;20041;-76
2022/02/18 08:27:07;;;;;;;5.63;1.13;;;;;;;;;;5118440;28;20048;-77
2022/02/18 08:29:33;;;;;;;8.75;2.05;;;;;;;;;;5118661;28;20075;-76
2022/02/18 08:32:00;;;;;;;6.72;1.33;;;;;;;;;;5118724;28;20096;-76
2022/02/18 08:34:26;;;;;;;4.93;0.98;;;;;;;;;;5118294;28;20039;-75
2022/02/18 08:36:53;;;;;;;6.78;1.50;;;;;;;;;;5118292;28;20071;-76
2022/02/18 08:39:21;;;;;;;6.10;2.65;;;;;;;;;;5118406;28;20097;-75
2022/02/18 08:41:47;;;;;;;6.72;1.85;;;;;;;;;;5118412;28;20078;-76
2022/02/18 08:44:14;;;;;;;2.78;0.90;;;;;;;;;;5117990;28;20118;-76
2022/02/18 08:46:41;;;;;;;4.68;1.00;;;;;;;;;;5118362;28;20071;-76
2022/02/18 08:49:07;;;;;;;3.42;1.20;;;;;;;;;;5118436;28;20078;-76
2022/02/18 08:51:34;;;;;;;3.80;1.20;;;;;;;;;;5118331;28;20089;-76
2022/02/18 08:54:07;;;;;;;2.97;1.10;;;;;;;;;;5118200;28;20071;-76
2022/02/18 08:56:35;;;;;;;2.17;0.70;;;;;;;;;;5117132;28;20086;-75
2022/02/18 08:59:03;;;;;;;3.13;0.98;;;;;;;;;;5117363;28;20085;-76
2022/02/18 09:01:30;;;;;;;4.60;0.90;;;;;;;;;;5117966;28;20075;-76
2022/02/18 09:03:56;;;;;;;4.18;1.30;;;;;;;;;;5117859;28;20122;-76
2022/02/18 09:06:23;;;;;;;3.85;1.00;;;;;;;;;;5117555;28;20068;-75
2022/02/18 09:08:50;;;;;;;3.72;1.13;;;;;;;;;;5116667;28;20483;-75
2022/02/18 09:11:18;;;;;;;6.22;1.10;;;;;;;;;;5115979;28;20122;-76
2022/02/18 09:13:46;;;;;;;7.47;1.30;;;;;;;;;;5117470;28;20119;-75
2022/02/18 09:16:13;;;;;;;4.43;0.90;;;;;;;;;;5116158;28;20078;-75
2022/02/18 09:18:39;;;;;;;4.65;1.00;;;;;;;;;;5117425;28;20123;-75
2022/02/18 09:21:07;;;;;;;6.00;1.23;;;;;;;;;;5116321;28;20130;-75
2022/02/18 09:23:33;;;;;;;2.15;0.77;;;;;;;;;;5117414;28;20049;-75
2022/02/18 09:26:00;;;;;;;4.10;1.08;;;;;;;;;;5117377;28;20071;-75
2022/02/18 09:28:28;;;;;;;2.33;0.90;;;;;;;;;;5117009;28;20141;-75
2022/02/18 09:30:56;;;;;;;5.03;0.90;;;;;;;;;;5117135;28;20036;-75
2022/02/18 09:33:25;;;;;;;3.60;0.88;;;;;;;;;;5117333;28;20124;-75
2022/02/18 09:35:52;;;;;;;2.65;1.10;;;;;;;;;;5116047;28;20483;-75
2022/02/18 09:38:19;;;;;;;3.55;2.38;;;;;;;;;;5117236;28;20078;-75
2022/02/18 09:40:46;;;;;;;4.55;1.20;;;;;;;;;;5117262;28;20075;-75
2022/02/18 09:43:14;;;;;;;5.15;1.10;;;;;;;;;;5116067;28;20126;-75
2022/02/18 09:45:41;;;;;;;3.13;0.90;;;;;;;;;;5116549;28;20122;-75
2022/02/18 09:48:13;;;;;;;5.53;1.73;;;;;;;;;;5116192;28;20156;-76
2022/02/18 09:50:40;;;;;;;4.28;0.85;;;;;;;;;;5116832;28;20126;-77
2022/02/18 09:53:06;;;;;;;1.75;0.70;;;;;;;;;;5116766;28;20067;-77
2022/02/18 09:55:33;;;;;;;6.30;0.77;;;;;;;;;;5116110;28;20071;-76
2022/02/18 09:58:00;;;;;;;3.85;1.00;;;;;;;;;;5117279;28;20053;-76
2022/02/18 10:00:27;;;;;;;5.63;1.35;;;;;;;;;;5116518;28;20075;-76
2022/02/18 10:02:54;;;;;;;5.00;1.15;;;;;;;;;;5116671;28;20123;-76
2022/02/18 10:05:22;;;;;;;6.97;3.05;;;;;;;;;;5116331;28;20084;-76
2022/02/18 10:08:09;;;;;;;18.05;10.82;;;;;;;;;;5116822;28;20078;-76
2022/02/18 10:10:37;;;;;;;2.72;1.40;;;;;;;;;;5115878;28;20089;-76
2022/02/18 10:13:04;;;;;;;5.38;3.28;;;;;;;;;;5114343;28;20087;-77
2022/02/18 10:15:43;;;;;;;4.72;3.80;;;;;;;;;;5116176;28;20071;-76
2022/02/18 10:18:10;;;;;;;4.78;3.42;;;;;;;;;;5116405;28;20074;-75
2022/02/18 10:20:41;;;;;;;3.08;1.02;;;;;;;;;;5115278;28;20479;-77
2022/02/18 10:23:09;;;;;;;6.00;2.53;;;;;;;;;;5116534;28;20086;-76
2022/02/18 10:25:37;;;;;;;5.20;1.67;;;;;;;;;;5115972;28;20071;-76
2022/02/18 10:28:04;;;;;;;13.02;10.20;;;;;;;;;;5114811;28;20075;-76
2022/02/18 10:30:32;;;;;;;13.15;7.10;;;;;;;;;;5115272;28;20127;-75
2022/02/18 10:33:10;;;;;;;5.82;1.80;;;;;;;;;;5115000;28;20555;-75
2022/02/18 10:35:38;;;;;;;7.65;4.95;;;;;;;;;;5115968;28;20039;-75
2022/02/18 10:38:05;;;;;;;18.27;11.70;;;;;;;;;;5115268;28;20448;-75
2022/02/18 10:40:32;;;;;;;87.32;62.03;;;;;;;;;;5115983;28;20131;-76
2022/02/18 10:43:08;;;;;;;23.63;17.17;;;;;;;;;;5115896;28;20126;-75
2022/02/18 10:45:35;;;;;;;16.45;10.50;;;;;;;;;;5115560;28;20039;-75
2022/02/18 10:48:09;;;;;;;10.68;7.70;;;;;;;;;;5114626;28;20690;-75
2022/02/18 10:50:37;;;;;;;25.17;18.33;;;;;;;;;;5115666;28;20127;-75
2022/02/18 10:53:12;;;;;;;13.50;9.18;;;;;;;;;;5115783;28;20160;-76
2022/02/18 10:55:49;;;;;;;6.57;4.47;;;;;;;;;;5115451;28;20071;-75
2022/02/18 10:58:20;;;;;;;10.15;6.63;;;;;;;;;;5114884;28;20126;-76
2022/02/18 11:00:47;;;;;;;20.50;13.32;;;;;;;;;;5114291;28;20538;-76
2022/02/18 11:03:25;;;;;;;5.25;1.45;;;;;;;;;;5115623;28;20067;-75
2022/02/18 11:05:53;;;;;;;4.63;1.73;;;;;;;;;;5115550;28;20100;-75
2022/02/18 11:08:28;;;;;;;3.25;1.88;;;;;;;;;;5114485;28;20100;-76
2022/02/18 11:10:55;;;;;;;4.22;2.35;;;;;;;;;;5115151;28;20071;-75
2022/02/18 11:13:35;;;;;;;18.98;12.77;;;;;;;;;;5114452;28;20056;-75
2022/02/18 11:16:02;;;;;;;5.18;2.15;;;;;;;;;;5115604;28;20379;-76
2022/02/18 11:18:29;;;;;;;3.20;0.90;;;;;;;;;;5118643;28;20043;-75
2022/02/18 11:21:00;;;;;;;2.58;1.55;;;;;;;;;;5118310;28;20043;-76
2022/02/18 11:23:26;;;;;;;5.63;1.77;;;;;;;;;;5118428;28;20071;-76
2022/02/18 11:25:54;;;;;;;2.97;0.90;;;;;;;;;;5115364;28;20129;-77
2022/02/18 11:28:21;;;;;;;2.30;1.30;;;;;;;;;;5115989;28;20463;-75
2022/02/18 11:30:48;;;;;;;2.55;0.93;;;;;;;;;;5115205;28;20142;-75
2022/02/18 11:33:35;;;;;;;3.20;1.10;;;;;;;;;;5115206;28;20126;-76
2022/02/18 11:36:21;;;;;;;3.97;1.80;;;;;;;;;;5115265;28;20122;-75
2022/02/18 11:39:03;;;;;;;5.40;1.65;;;;;;;;;;5113851;28;20126;-76
2022/02/18 11:41:40;;;;;;;2.97;1.00;;;;;;;;;;5115165;28;20440;-76
2022/02/18 11:44:08;;;;;;;4.00;1.73;;;;;;;;;;5115217;28;20118;-76
2022/02/18 11:46:35;;;;;;;3.88;1.25;;;;;;;;;;5114995;28;20244;-76
2022/02/18 11:49:01;;;;;;;5.03;1.33;;;;;;;;;;5114284;28;20108;-75
2022/02/18 11:51:40;;;;;;;3.13;1.17;;;;;;;;;;5114987;28;20079;-76
2022/02/18 11:54:24;;;;;;;1.67;0.75;;;;;;;;;;5115041;28;20071;-76
2022/02/18 11:56:53;;;;;;;3.72;0.70;;;;;;;;;;5114715;28;20118;-76
2022/02/18 11:59:20;;;;;;;4.05;1.85;;;;;;;;;;5114584;28;20039;-76
2022/02/18 12:02:05;;;;;;;3.35;0.60;;;;;;;;;;5115322;28;20425;-76
2022/02/18 12:04:32;;;;;;;2.38;0.80;;;;;;;;;;5114227;28;20040;-76
2022/02/18 12:07:26;;;;;;;2.03;0.60;;;;;;;;;;5114733;28;20044;-76
2022/02/18 12:10:06;;;;;;;3.67;1.10;;;;;;;;;;5114433;28;20118;-76
2022/02/18 12:12:34;;;;;;;3.13;0.55;;;;;;;;;;5113190;28;20143;-76
2022/02/18 12:15:10;;;;;;;2.75;1.17;;;;;;;;;;5114635;28;20071;-75
2022/02/18 12:17:38;;;;;;;1.45;0.55;;;;;;;;;;5114651;28;20086;-76
2022/02/18 12:20:13;;;;;;;4.85;1.55;;;;;;;;;;5114336;28;20071;-75
2022/02/18 12:22:41;;;;;;;5.07;2.47;;;;;;;;;;5114368;28;20071;-75
2022/02/18 12:25:09;;;;;;;5.80;1.70;;;;;;;;;;5113810;28;20079;-75
2022/02/18 12:27:38;;;;;;;6.03;2.58;;;;;;;;;;5114519;28;20118;-75
2022/02/18 12:30:42;;;;;;;7.38;3.05;;;;;;;;;;5113417;28;20388;-75
2022/02/18 12:33:11;;;;;;;3.75;1.05;;;;;;;;;;5114534;28;20039;-76
2022/02/18 12:35:39;;;;;;;4.28;1.70;;;;;;;;;;5113973;28;20075;-75
2022/02/18 12:38:09;;;;;;;5.25;1.70;;;;;;;;;;5114351;28;20078;-74
2022/02/18 12:40:37;;;;;;;6.25;2.88;;;;;;;;;;5113283;28;20081;-75
2022/02/18 12:43:06;;;;;;;3.42;0.95;;;;;;;;;;5114466;28;20074;-75
2022/02/18 12:45:39;;;;;;;4.78;1.73;;;;;;;;;;5113229;28;20086;-75
2022/02/18 12:48:06;;;;;;;4.55;1.98;;;;;;;;;;5114329;28;20078;-75
2022/02/18 12:50:34;;;;;;;3.30;1.30;;;;;;;;;;5116327;28;20101;-75
2022/02/18 12:53:00;;;;;;;2.25;0.60;;;;;;;;;;5118060;28;20420;-75
2022/02/18 12:55:30;;;;;;;4.10;1.25;;;;;;;;;;5117082;28;20138;-75
2022/02/18 12:57:57;;;;;;;2.30;0.85;;;;;;;;;;5117877;28;20138;-75
2022/02/18 13:00:25;;;;;;;7.20;3.03;;;;;;;;;;5117086;28;20091;-75
2022/02/18 13:02:53;;;;;;;5.20;1.90;;;;;;;;;;5117867;28;20075;-75
2022/02/18 13:05:21;;;;;;;4.72;1.00;;;;;;;;;;5117763;28;20039;-75
2022/02/18 13:07:49;;;;;;;4.70;1.60;;;;;;;;;;5117802;28;20078;-75
2022/02/18 13:10:19;;;;;;;2.58;0.85;;;;;;;;;;5117390;28;20044;-75
2022/02/18 13:12:48;;;;;;;2.60;0.73;;;;;;;;;;5115112;28;20110;-75
2022/02/18 13:15:16;;;;;;;2.78;0.80;;;;;;;;;;5116830;28;20079;-75
2022/02/18 13:17:46;;;;;;;3.15;0.93;;;;;;;;;;5117580;28;20075;-75
2022/02/18 13:20:15;;;;;;;4.75;1.65;;;;;;;;;;5116426;28;20480;-75
2022/02/18 13:22:44;;;;;;;3.10;0.85;;;;;;;;;;5116391;28;20479;-75
2022/02/18 13:25:22;;;;;;;3.25;1.10;;;;;;;;;;5116557;28;20035;-75
2022/02/18 13:27:50;;;;;;;2.25;1.00;;;;;;;;;;5117380;28;20122;-75
2022/02/18 13:30:23;;;;;;;3.38;1.10;;;;;;;;;;5116776;28;20455;-75
2022/02/18 13:32:59;;;;;;;7.35;2.58;;;;;;;;;;5117266;28;20075;-75
2022/02/18 13:35:26;;;;;;;7.43;3.47;;;;;;;;;;5116162;28;20536;-75
2022/02/18 13:37:52;;;;;;;3.13;1.17;;;;;;;;;;5116067;28;20122;-75
2022/02/18 13:40:19;;;;;;;2.55;0.90;;;;;;;;;;5117139;28;20126;-75
2022/02/18 13:42:54;;;;;;;5.05;1.15;;;;;;;;;;5117046;28;20067;-75
2022/02/18 13:45:28;;;;;;;6.53;3.03;;;;;;;;;;5117076;28;20071;-75
2022/02/18 13:47:55;;;;;;;4.13;0.90;;;;;;;;;;5116279;28;20078;-75
2022/02/18 13:50:22;;;;;;;4.20;1.60;;;;;;;;;;5116927;28;20118;-75
2022/02/18 13:52:50;;;;;;;5.55;1.35;;;;;;;;;;5116769;28;20127;-75
2022/02/18 13:55:24;;;;;;;2.72;1.00;;;;;;;;;;5116758;28;20044;-75
2022/02/18 13:57:50;;;;;;;7.55;2.00;;;;;;;;;;5116772;28;20074;-75
2022/02/18 14:00:36;;;;;;;4.25;1.00;;;;;;;;;;5116032;28;20043;-76
2022/02/18 14:03:08;;;;;;;7.65;2.42;;;;;;;;;;5115947;28;20097;-75
2022/02/18 14:05:35;;;;;;;2.53;0.90;;;;;;;;;;5115810;28;20043;-75
2022/02/18 14:08:10;;;;;;;5.18;0.95;;;;;;;;;;5116585;28;20050;-75
2022/02/18 14:10:46;;;;;;;6.82;1.60;;;;;;;;;;5116553;28;20101;-75
2022/02/18 14:13:32;;;;;;;5.60;2.10;;;;;;;;;;5114415;28;20444;-75
2022/02/18 14:16:08;;;;;;;5.40;1.80;;;;;;;;;;5116401;28;20040;-76
2022/02/18 14:18:34;;;;;;;6.63;1.65;;;;;;;;;;5116395;28;20047;-75
2022/02/18 14:21:02;;;;;;;5.35;1.75;;;;;;;;;;5116103;28;20040;-75
2022/02/18 14:23:32;;;;;;;3.80;1.42;;;;;;;;;;5115487;28;20051;-75
2022/02/18 14:25:58;;;;;;;7.10;1.40;;;;;;;;;;5115935;28;20118;-75
2022/02/18 14:28:26;;;;;;;3.97;1.20;;;;;;;;;;5116203;28;20086;-75
2022/02/18 14:30:56;;;;;;;7.35;3.17;;;;;;;;;;5116034;28;20071;-75
2022/02/18 14:33:25;;;;;;;5.03;1.50;;;;;;;;;;5115768;28;20348;-75
2022/02/18 14:35:52;;;;;;;9.23;1.55;;;;;;;;;;5115753;28;20036;-75
2022/02/18 14:38:19;;;;;;;6.60;1.83;;;;;;;;;;5116012;28;20074;-75
2022/02/18 14:40:48;;;;;;;7.03;1.98;;;;;;;;;;5115588;28;20431;-75
2022/02/18 14:43:16;;;;;;;3.80;1.20;;;;;;;;;;5115654;28;20130;-75
2022/02/18 14:45:43;;;;;;;4.82;2.05;;;;;;;;;;5114707;28;20499;-75
2022/02/18 14:48:11;;;;;;;8.98;3.00;;;;;;;;;;5115457;28;20052;-75